sensor_id;sensor_type;location;lat;lon;timestamp;P1;durP1;ratioP1;P2;durP2;ratioP2
63110;SDS011;49201;53.426;10.300;2023-04-25T00:00:56;14.23;;;7.23;;
63110;SDS011;49201;53.426;10.300;2023-04-25T00:03:21;11.53;;;6.97;;
63110;SDS011;49201;53.426;10.300;2023-04-25T00:05:50;11.97;;;7.10;;
63110;SDS011;49201;53.426;10.300;2023-04-25T00:08:16;8.00;;;5.70;;
63110;SDS011;49201;53.426;10.300;2023-04-25T00:10:42;8.33;;;6.10;;
63110;SDS011;49201;53.426;10.300;2023-04-25T00:13:08;12.37;;;6.20;;
63110;SDS011;49201;53.426;10.300;2023-04-25T00:15:34;8.73;;;5.50;;
63110;SDS011;49201;53.426;10.300;2023-04-25T00:18:01;6.97;;;5.27;;
63110;SDS011;49201;53.426;10.300;2023-04-25T00:20:26;8.83;;;5.20;;
63110;SDS011;49201;53.426;10.300;2023-04-25T00:22:52;9.60;;;5.47;;
63110;SDS011;49201;53.426;10.300;2023-04-25T00:25:20;8.37;;;5.20;;
63110;SDS011;49201;53.426;10.300;2023-04-25T00:27:46;7.93;;;5.10;;
63110;SDS011;49201;53.426;10.300;2023-04-25T00:30:11;8.37;;;5.43;;
63110;SDS011;49201;53.426;10.300;2023-04-25T00:32:37;9.57;;;5.53;;
63110;SDS011;49201;53.426;10.300;2023-04-25T00:35:03;9.37;;;5.47;;
63110;SDS011;49201;53.426;10.300;2023-04-25T00:37:28;10.47;;;6.63;;
63110;SDS011;49201;53.426;10.300;2023-04-25T00:39:54;9.17;;;5.70;;
63110;SDS011;49201;53.426;10.300;2023-04-25T00:42:21;10.13;;;5.80;;
63110;SDS011;49201;53.426;10.300;2023-04-25T00:44:46;7.87;;;5.13;;
63110;SDS011;49201;53.426;10.300;2023-04-25T00:47:12;7.33;;;5.33;;
63110;SDS011;49201;53.426;10.300;2023-04-25T00:49:38;9.20;;;4.73;;
63110;SDS011;49201;53.426;10.300;2023-04-25T00:52:04;6.23;;;4.20;;
63110;SDS011;49201;53.426;10.300;2023-04-25T00:54:29;6.60;;;3.73;;
63110;SDS011;49201;53.426;10.300;2023-04-25T00:56:56;6.07;;;3.90;;
63110;SDS011;49201;53.426;10.300;2023-04-25T00:59:22;6.73;;;3.73;;
63110;SDS011;49201;53.426;10.300;2023-04-25T01:01:47;9.97;;;4.37;;
63110;SDS011;49201;53.426;10.300;2023-04-25T01:04:13;10.27;;;4.60;;
63110;SDS011;49201;53.426;10.300;2023-04-25T01:06:38;9.97;;;3.77;;
63110;SDS011;49201;53.426;10.300;2023-04-25T01:09:05;9.67;;;4.07;;
63110;SDS011;49201;53.426;10.300;2023-04-25T01:11:31;10.63;;;4.27;;
63110;SDS011;49201;53.426;10.300;2023-04-25T01:13:56;11.10;;;3.87;;
63110;SDS011;49201;53.426;10.300;2023-04-25T01:16:22;17.13;;;4.70;;
63110;SDS011;49201;53.426;10.300;2023-04-25T01:18:49;20.50;;;4.90;;
63110;SDS011;49201;53.426;10.300;2023-04-25T01:21:16;16.10;;;5.27;;
63110;SDS011;49201;53.426;10.300;2023-04-25T01:23:43;22.33;;;5.23;;
63110;SDS011;49201;53.426;10.300;2023-04-25T01:26:09;19.40;;;4.83;;
63110;SDS011;49201;53.426;10.300;2023-04-25T01:28:36;15.50;;;5.70;;
63110;SDS011;49201;53.426;10.300;2023-04-25T01:31:03;14.83;;;4.37;;
63110;SDS011;49201;53.426;10.300;2023-04-25T01:33:30;15.00;;;5.13;;
63110;SDS011;49201;53.426;10.300;2023-04-25T01:35:56;16.50;;;4.83;;
63110;SDS011;49201;53.426;10.300;2023-04-25T01:38:21;15.60;;;4.93;;
63110;SDS011;49201;53.426;10.300;2023-04-25T01:40:47;16.73;;;4.80;;
63110;SDS011;49201;53.426;10.300;2023-04-25T01:43:17;22.63;;;4.97;;
63110;SDS011;49201;53.426;10.300;2023-04-25T01:45:44;22.93;;;5.17;;
63110;SDS011;49201;53.426;10.300;2023-04-25T01:48:11;20.97;;;5.20;;
63110;SDS011;49201;53.426;10.300;2023-04-25T01:50:38;21.83;;;5.03;;
63110;SDS011;49201;53.426;10.300;2023-04-25T01:53:05;27.33;;;5.90;;
63110;SDS011;49201;53.426;10.300;2023-04-25T01:55:31;22.67;;;5.60;;
63110;SDS011;49201;53.426;10.300;2023-04-25T01:58:02;21.30;;;4.40;;
63110;SDS011;49201;53.426;10.300;2023-04-25T02:00:50;22.70;;;5.27;;
63110;SDS011;49201;53.426;10.300;2023-04-25T02:03:15;23.67;;;5.27;;
63110;SDS011;49201;53.426;10.300;2023-04-25T02:05:41;32.40;;;6.07;;
63110;SDS011;49201;53.426;10.300;2023-04-25T02:08:09;27.17;;;5.80;;
63110;SDS011;49201;53.426;10.300;2023-04-25T02:10:36;17.13;;;5.27;;
63110;SDS011;49201;53.426;10.300;2023-04-25T02:13:13;23.67;;;5.00;;
63110;SDS011;49201;53.426;10.300;2023-04-25T02:15:44;23.47;;;5.53;;
63110;SDS011;49201;53.426;10.300;2023-04-25T02:18:14;22.97;;;4.90;;
63110;SDS011;49201;53.426;10.300;2023-04-25T02:20:41;24.40;;;5.57;;
63110;SDS011;49201;53.426;10.300;2023-04-25T02:23:07;22.50;;;5.70;;
63110;SDS011;49201;53.426;10.300;2023-04-25T02:25:33;20.13;;;5.37;;
63110;SDS011;49201;53.426;10.300;2023-04-25T02:27:58;25.17;;;6.17;;
63110;SDS011;49201;53.426;10.300;2023-04-25T02:30:24;23.53;;;5.30;;
63110;SDS011;49201;53.426;10.300;2023-04-25T02:32:49;14.60;;;4.83;;
63110;SDS011;49201;53.426;10.300;2023-04-25T02:35:15;19.03;;;5.23;;
63110;SDS011;49201;53.426;10.300;2023-04-25T02:37:41;23.93;;;5.07;;
63110;SDS011;49201;53.426;10.300;2023-04-25T02:40:07;18.97;;;4.93;;
63110;SDS011;49201;53.426;10.300;2023-04-25T02:42:33;25.77;;;5.50;;
63110;SDS011;49201;53.426;10.300;2023-04-25T02:44:59;28.27;;;5.07;;
63110;SDS011;49201;53.426;10.300;2023-04-25T02:47:25;24.03;;;5.50;;
63110;SDS011;49201;53.426;10.300;2023-04-25T02:49:51;16.57;;;4.97;;
63110;SDS011;49201;53.426;10.300;2023-04-25T02:52:16;22.77;;;4.63;;
63110;SDS011;49201;53.426;10.300;2023-04-25T02:54:44;21.80;;;5.27;;
63110;SDS011;49201;53.426;10.300;2023-04-25T02:57:10;21.37;;;4.70;;
63110;SDS011;49201;53.426;10.300;2023-04-25T02:59:36;26.53;;;5.10;;
63110;SDS011;49201;53.426;10.300;2023-04-25T03:02:02;19.27;;;4.43;;
63110;SDS011;49201;53.426;10.300;2023-04-25T03:04:28;17.63;;;4.63;;
63110;SDS011;49201;53.426;10.300;2023-04-25T03:06:54;22.20;;;5.10;;
63110;SDS011;49201;53.426;10.300;2023-04-25T03:09:20;21.13;;;4.83;;
63110;SDS011;49201;53.426;10.300;2023-04-25T03:11:46;21.83;;;4.53;;
63110;SDS011;49201;53.426;10.300;2023-04-25T03:14:12;21.70;;;4.73;;
63110;SDS011;49201;53.426;10.300;2023-04-25T03:16:38;20.00;;;5.17;;
63110;SDS011;49201;53.426;10.300;2023-04-25T03:19:04;21.37;;;5.07;;
63110;SDS011;49201;53.426;10.300;2023-04-25T03:21:33;17.23;;;4.40;;
63110;SDS011;49201;53.426;10.300;2023-04-25T03:24:00;27.80;;;5.47;;
63110;SDS011;49201;53.426;10.300;2023-04-25T03:26:27;25.83;;;4.50;;
63110;SDS011;49201;53.426;10.300;2023-04-25T03:28:53;19.10;;;5.37;;
63110;SDS011;49201;53.426;10.300;2023-04-25T03:31:19;23.33;;;5.27;;
63110;SDS011;49201;53.426;10.300;2023-04-25T03:33:44;18.13;;;4.30;;
63110;SDS011;49201;53.426;10.300;2023-04-25T03:36:10;17.47;;;4.70;;
63110;SDS011;49201;53.426;10.300;2023-04-25T03:38:36;20.37;;;4.23;;
63110;SDS011;49201;53.426;10.300;2023-04-25T03:41:02;23.53;;;5.13;;
63110;SDS011;49201;53.426;10.300;2023-04-25T03:43:47;20.67;;;4.70;;
63110;SDS011;49201;53.426;10.300;2023-04-25T03:46:16;19.27;;;4.50;;
63110;SDS011;49201;53.426;10.300;2023-04-25T03:48:41;21.90;;;4.87;;
63110;SDS011;49201;53.426;10.300;2023-04-25T03:51:09;22.33;;;5.17;;
63110;SDS011;49201;53.426;10.300;2023-04-25T03:53:38;23.30;;;5.27;;
63110;SDS011;49201;53.426;10.300;2023-04-25T03:56:19;19.77;;;4.50;;
63110;SDS011;49201;53.426;10.300;2023-04-25T03:58:47;23.47;;;5.23;;
63110;SDS011;49201;53.426;10.300;2023-04-25T04:01:14;25.17;;;5.20;;
63110;SDS011;49201;53.426;10.300;2023-04-25T04:03:40;27.37;;;5.37;;
63110;SDS011;49201;53.426;10.300;2023-04-25T04:06:06;27.23;;;5.33;;
63110;SDS011;49201;53.426;10.300;2023-04-25T04:08:35;19.17;;;4.20;;
63110;SDS011;49201;53.426;10.300;2023-04-25T04:11:01;21.43;;;4.50;;
63110;SDS011;49201;53.426;10.300;2023-04-25T04:13:27;28.60;;;5.13;;
63110;SDS011;49201;53.426;10.300;2023-04-25T04:15:54;18.63;;;4.40;;
63110;SDS011;49201;53.426;10.300;2023-04-25T04:18:20;16.50;;;3.87;;
63110;SDS011;49201;53.426;10.300;2023-04-25T04:20:46;21.43;;;4.27;;
63110;SDS011;49201;53.426;10.300;2023-04-25T04:23:12;23.97;;;5.13;;
63110;SDS011;49201;53.426;10.300;2023-04-25T04:25:39;22.07;;;4.00;;
63110;SDS011;49201;53.426;10.300;2023-04-25T04:28:27;19.47;;;4.10;;
63110;SDS011;49201;53.426;10.300;2023-04-25T04:31:00;22.70;;;4.13;;
63110;SDS011;49201;53.426;10.300;2023-04-25T04:33:28;19.07;;;4.27;;
63110;SDS011;49201;53.426;10.300;2023-04-25T04:35:58;18.13;;;4.17;;
63110;SDS011;49201;53.426;10.300;2023-04-25T04:38:24;18.67;;;4.47;;
63110;SDS011;49201;53.426;10.300;2023-04-25T04:40:52;21.53;;;4.43;;
63110;SDS011;49201;53.426;10.300;2023-04-25T04:43:32;18.70;;;4.07;;
63110;SDS011;49201;53.426;10.300;2023-04-25T04:46:22;16.57;;;3.57;;
63110;SDS011;49201;53.426;10.300;2023-04-25T04:49:15;21.83;;;4.03;;
63110;SDS011;49201;53.426;10.300;2023-04-25T04:51:58;18.13;;;4.63;;
63110;SDS011;49201;53.426;10.300;2023-04-25T04:54:54;16.50;;;4.00;;
63110;SDS011;49201;53.426;10.300;2023-04-25T04:57:58;19.67;;;4.20;;
63110;SDS011;49201;53.426;10.300;2023-04-25T05:00:45;15.43;;;3.60;;
63110;SDS011;49201;53.426;10.300;2023-04-25T05:03:28;18.33;;;4.23;;
63110;SDS011;49201;53.426;10.300;2023-04-25T05:06:20;17.20;;;4.20;;
63110;SDS011;49201;53.426;10.300;2023-04-25T05:09:00;16.33;;;4.50;;
63110;SDS011;49201;53.426;10.300;2023-04-25T05:11:46;21.20;;;4.83;;
63110;SDS011;49201;53.426;10.300;2023-04-25T05:14:38;14.87;;;4.60;;
63110;SDS011;49201;53.426;10.300;2023-04-25T05:17:15;15.50;;;4.00;;
63110;SDS011;49201;53.426;10.300;2023-04-25T05:20:01;14.30;;;4.00;;
63110;SDS011;49201;53.426;10.300;2023-04-25T05:22:53;24.27;;;5.83;;
63110;SDS011;49201;53.426;10.300;2023-04-25T05:25:50;23.20;;;4.17;;
63110;SDS011;49201;53.426;10.300;2023-04-25T05:28:51;17.87;;;4.40;;
63110;SDS011;49201;53.426;10.300;2023-04-25T05:31:36;16.77;;;4.07;;
63110;SDS011;49201;53.426;10.300;2023-04-25T05:34:07;14.83;;;3.60;;
63110;SDS011;49201;53.426;10.300;2023-04-25T05:36:41;17.43;;;3.87;;
63110;SDS011;49201;53.426;10.300;2023-04-25T05:39:06;16.80;;;3.73;;
63110;SDS011;49201;53.426;10.300;2023-04-25T05:41:58;23.73;;;4.20;;
63110;SDS011;49201;53.426;10.300;2023-04-25T05:44:44;20.80;;;3.80;;
63110;SDS011;49201;53.426;10.300;2023-04-25T05:47:32;17.47;;;3.77;;
63110;SDS011;49201;53.426;10.300;2023-04-25T05:50:18;22.87;;;4.03;;
63110;SDS011;49201;53.426;10.300;2023-04-25T05:53:13;15.90;;;3.83;;
63110;SDS011;49201;53.426;10.300;2023-04-25T05:55:40;18.87;;;4.93;;
63110;SDS011;49201;53.426;10.300;2023-04-25T05:58:23;16.53;;;4.63;;
63110;SDS011;49201;53.426;10.300;2023-04-25T06:00:49;16.00;;;3.93;;
63110;SDS011;49201;53.426;10.300;2023-04-25T06:03:16;17.10;;;3.83;;
63110;SDS011;49201;53.426;10.300;2023-04-25T06:05:41;14.00;;;3.43;;
63110;SDS011;49201;53.426;10.300;2023-04-25T06:08:08;19.50;;;4.37;;
63110;SDS011;49201;53.426;10.300;2023-04-25T06:10:34;19.37;;;4.07;;
63110;SDS011;49201;53.426;10.300;2023-04-25T06:12:59;15.23;;;3.80;;
63110;SDS011;49201;53.426;10.300;2023-04-25T06:15:25;15.30;;;3.57;;
63110;SDS011;49201;53.426;10.300;2023-04-25T06:17:50;12.13;;;3.73;;
63110;SDS011;49201;53.426;10.300;2023-04-25T06:20:16;12.70;;;3.53;;
63110;SDS011;49201;53.426;10.300;2023-04-25T06:22:41;13.60;;;3.60;;
63110;SDS011;49201;53.426;10.300;2023-04-25T06:25:07;15.33;;;3.93;;
63110;SDS011;49201;53.426;10.300;2023-04-25T06:27:33;12.67;;;3.27;;
63110;SDS011;49201;53.426;10.300;2023-04-25T06:30:00;15.83;;;4.17;;
63110;SDS011;49201;53.426;10.300;2023-04-25T06:32:26;14.97;;;3.70;;
63110;SDS011;49201;53.426;10.300;2023-04-25T06:34:53;14.17;;;3.47;;
63110;SDS011;49201;53.426;10.300;2023-04-25T06:37:19;14.90;;;4.13;;
63110;SDS011;49201;53.426;10.300;2023-04-25T06:39:45;16.33;;;3.20;;
63110;SDS011;49201;53.426;10.300;2023-04-25T06:42:10;17.70;;;3.37;;
63110;SDS011;49201;53.426;10.300;2023-04-25T06:44:44;14.73;;;3.63;;
63110;SDS011;49201;53.426;10.300;2023-04-25T06:47:11;16.13;;;3.07;;
63110;SDS011;49201;53.426;10.300;2023-04-25T06:49:37;18.27;;;3.77;;
63110;SDS011;49201;53.426;10.300;2023-04-25T06:52:03;10.47;;;3.50;;
63110;SDS011;49201;53.426;10.300;2023-04-25T06:54:29;13.13;;;3.50;;
63110;SDS011;49201;53.426;10.300;2023-04-25T06:57:02;16.97;;;4.03;;
63110;SDS011;49201;53.426;10.300;2023-04-25T06:59:28;21.17;;;4.00;;
63110;SDS011;49201;53.426;10.300;2023-04-25T07:01:53;17.40;;;3.93;;
63110;SDS011;49201;53.426;10.300;2023-04-25T07:04:23;9.60;;;3.17;;
63110;SDS011;49201;53.426;10.300;2023-04-25T07:06:53;11.67;;;3.30;;
63110;SDS011;49201;53.426;10.300;2023-04-25T07:09:26;16.23;;;2.90;;
63110;SDS011;49201;53.426;10.300;2023-04-25T07:11:51;10.97;;;3.80;;
63110;SDS011;49201;53.426;10.300;2023-04-25T07:14:17;13.90;;;3.50;;
63110;SDS011;49201;53.426;10.300;2023-04-25T07:16:43;13.93;;;3.47;;
63110;SDS011;49201;53.426;10.300;2023-04-25T07:19:09;13.60;;;3.30;;
63110;SDS011;49201;53.426;10.300;2023-04-25T07:21:35;13.03;;;3.57;;
63110;SDS011;49201;53.426;10.300;2023-04-25T07:24:02;15.10;;;3.40;;
63110;SDS011;49201;53.426;10.300;2023-04-25T07:26:32;15.37;;;3.17;;
63110;SDS011;49201;53.426;10.300;2023-04-25T07:29:20;11.27;;;3.27;;
63110;SDS011;49201;53.426;10.300;2023-04-25T07:31:46;11.63;;;3.40;;
63110;SDS011;49201;53.426;10.300;2023-04-25T07:34:12;11.60;;;3.00;;
63110;SDS011;49201;53.426;10.300;2023-04-25T07:36:37;10.20;;;2.60;;
63110;SDS011;49201;53.426;10.300;2023-04-25T07:39:03;18.60;;;3.00;;
63110;SDS011;49201;53.426;10.300;2023-04-25T07:41:29;11.30;;;3.50;;
63110;SDS011;49201;53.426;10.300;2023-04-25T07:43:54;10.97;;;2.90;;
63110;SDS011;49201;53.426;10.300;2023-04-25T07:46:20;16.83;;;4.00;;
63110;SDS011;49201;53.426;10.300;2023-04-25T07:48:45;13.37;;;2.53;;
63110;SDS011;49201;53.426;10.300;2023-04-25T07:51:11;14.53;;;3.23;;
63110;SDS011;49201;53.426;10.300;2023-04-25T07:53:37;11.87;;;3.10;;
63110;SDS011;49201;53.426;10.300;2023-04-25T07:56:07;9.67;;;2.80;;
63110;SDS011;49201;53.426;10.300;2023-04-25T07:58:36;11.90;;;2.40;;
63110;SDS011;49201;53.426;10.300;2023-04-25T08:01:03;7.70;;;2.67;;
63110;SDS011;49201;53.426;10.300;2023-04-25T08:03:35;10.83;;;2.50;;
63110;SDS011;49201;53.426;10.300;2023-04-25T08:06:03;10.23;;;3.03;;
63110;SDS011;49201;53.426;10.300;2023-04-25T08:08:31;9.93;;;2.63;;
63110;SDS011;49201;53.426;10.300;2023-04-25T08:10:57;11.73;;;2.63;;
63110;SDS011;49201;53.426;10.300;2023-04-25T08:13:22;15.53;;;3.23;;
63110;SDS011;49201;53.426;10.300;2023-04-25T08:15:49;8.70;;;2.20;;
63110;SDS011;49201;53.426;10.300;2023-04-25T08:18:14;9.63;;;2.10;;
63110;SDS011;49201;53.426;10.300;2023-04-25T08:20:41;10.27;;;2.57;;
63110;SDS011;49201;53.426;10.300;2023-04-25T08:23:09;12.87;;;2.90;;
63110;SDS011;49201;53.426;10.300;2023-04-25T08:25:58;11.40;;;3.03;;
63110;SDS011;49201;53.426;10.300;2023-04-25T08:28:26;9.67;;;2.30;;
63110;SDS011;49201;53.426;10.300;2023-04-25T08:30:52;10.57;;;2.67;;
63110;SDS011;49201;53.426;10.300;2023-04-25T08:33:19;6.93;;;2.30;;
63110;SDS011;49201;53.426;10.300;2023-04-25T08:35:47;9.47;;;2.60;;
63110;SDS011;49201;53.426;10.300;2023-04-25T08:38:14;9.10;;;2.43;;
63110;SDS011;49201;53.426;10.300;2023-04-25T08:40:40;11.73;;;2.33;;
63110;SDS011;49201;53.426;10.300;2023-04-25T08:43:12;10.63;;;2.47;;
63110;SDS011;49201;53.426;10.300;2023-04-25T08:45:40;10.63;;;2.53;;
63110;SDS011;49201;53.426;10.300;2023-04-25T08:48:13;11.20;;;2.50;;
63110;SDS011;49201;53.426;10.300;2023-04-25T08:50:40;8.23;;;2.40;;
63110;SDS011;49201;53.426;10.300;2023-04-25T08:53:16;8.87;;;2.20;;
63110;SDS011;49201;53.426;10.300;2023-04-25T08:55:46;9.33;;;2.33;;
63110;SDS011;49201;53.426;10.300;2023-04-25T08:58:14;8.00;;;2.40;;
63110;SDS011;49201;53.426;10.300;2023-04-25T09:00:40;9.40;;;2.10;;
63110;SDS011;49201;53.426;10.300;2023-04-25T09:03:06;9.07;;;1.63;;
63110;SDS011;49201;53.426;10.300;2023-04-25T09:05:33;11.47;;;2.30;;
63110;SDS011;49201;53.426;10.300;2023-04-25T09:07:59;7.93;;;2.20;;
63110;SDS011;49201;53.426;10.300;2023-04-25T09:10:26;9.37;;;2.37;;
63110;SDS011;49201;53.426;10.300;2023-04-25T09:13:04;6.83;;;1.80;;
63110;SDS011;49201;53.426;10.300;2023-04-25T09:16:07;6.87;;;1.77;;
63110;SDS011;49201;53.426;10.300;2023-04-25T09:18:53;10.03;;;1.50;;
63110;SDS011;49201;53.426;10.300;2023-04-25T09:21:21;12.23;;;2.17;;
63110;SDS011;49201;53.426;10.300;2023-04-25T09:23:48;5.33;;;1.97;;
63110;SDS011;49201;53.426;10.300;2023-04-25T09:26:15;8.50;;;1.90;;
63110;SDS011;49201;53.426;10.300;2023-04-25T09:28:42;8.83;;;2.00;;
63110;SDS011;49201;53.426;10.300;2023-04-25T09:31:11;6.77;;;1.73;;
63110;SDS011;49201;53.426;10.300;2023-04-25T09:33:43;3.33;;;1.00;;
63110;SDS011;49201;53.426;10.300;2023-04-25T09:36:09;9.57;;;1.40;;
63110;SDS011;49201;53.426;10.300;2023-04-25T09:38:55;4.27;;;1.13;;
63110;SDS011;49201;53.426;10.300;2023-04-25T09:41:26;5.23;;;1.00;;
63110;SDS011;49201;53.426;10.300;2023-04-25T09:43:56;5.00;;;1.27;;
63110;SDS011;49201;53.426;10.300;2023-04-25T09:46:25;4.20;;;1.63;;
63110;SDS011;49201;53.426;10.300;2023-04-25T09:48:57;6.33;;;1.20;;
63110;SDS011;49201;53.426;10.300;2023-04-25T09:51:33;5.27;;;1.70;;
63110;SDS011;49201;53.426;10.300;2023-04-25T09:53:59;7.37;;;1.70;;
63110;SDS011;49201;53.426;10.300;2023-04-25T09:56:35;7.03;;;1.50;;
63110;SDS011;49201;53.426;10.300;2023-04-25T09:59:05;5.63;;;1.53;;
63110;SDS011;49201;53.426;10.300;2023-04-25T10:01:33;5.53;;;1.50;;
63110;SDS011;49201;53.426;10.300;2023-04-25T10:04:11;6.17;;;1.60;;
63110;SDS011;49201;53.426;10.300;2023-04-25T10:06:45;6.97;;;1.70;;
63110;SDS011;49201;53.426;10.300;2023-04-25T10:09:16;7.10;;;1.83;;
63110;SDS011;49201;53.426;10.300;2023-04-25T10:11:44;9.37;;;1.83;;
63110;SDS011;49201;53.426;10.300;2023-04-25T10:14:13;6.60;;;1.70;;
63110;SDS011;49201;53.426;10.300;2023-04-25T10:16:39;5.10;;;1.20;;
63110;SDS011;49201;53.426;10.300;2023-04-25T10:19:07;6.60;;;1.40;;
63110;SDS011;49201;53.426;10.300;2023-04-25T10:21:32;5.93;;;1.50;;
63110;SDS011;49201;53.426;10.300;2023-04-25T10:23:59;4.73;;;1.53;;
63110;SDS011;49201;53.426;10.300;2023-04-25T10:26:25;9.53;;;1.63;;
63110;SDS011;49201;53.426;10.300;2023-04-25T10:28:58;5.80;;;1.63;;
63110;SDS011;49201;53.426;10.300;2023-04-25T10:31:24;8.73;;;2.00;;
63110;SDS011;49201;53.426;10.300;2023-04-25T10:33:50;7.73;;;1.50;;
63110;SDS011;49201;53.426;10.300;2023-04-25T10:36:22;11.80;;;1.90;;
63110;SDS011;49201;53.426;10.300;2023-04-25T10:38:49;5.77;;;1.73;;
63110;SDS011;49201;53.426;10.300;2023-04-25T10:41:17;7.70;;;2.20;;
63110;SDS011;49201;53.426;10.300;2023-04-25T10:43:48;7.57;;;1.50;;
63110;SDS011;49201;53.426;10.300;2023-04-25T10:51:28;5.13;;;1.47;;
63110;SDS011;49201;53.426;10.300;2023-04-25T10:54:02;9.23;;;2.47;;
63110;SDS011;49201;53.426;10.300;2023-04-25T10:56:33;8.33;;;1.80;;
63110;SDS011;49201;53.426;10.300;2023-04-25T11:01:40;7.70;;;2.40;;
63110;SDS011;49201;53.426;10.300;2023-04-25T11:04:05;4.33;;;1.40;;
63110;SDS011;49201;53.426;10.300;2023-04-25T11:06:34;6.60;;;1.30;;
63110;SDS011;49201;53.426;10.300;2023-04-25T11:09:12;9.37;;;1.90;;
63110;SDS011;49201;53.426;10.300;2023-04-25T11:11:38;4.37;;;1.37;;
63110;SDS011;49201;53.426;10.300;2023-04-25T11:14:04;4.73;;;1.20;;
63110;SDS011;49201;53.426;10.300;2023-04-25T11:16:29;4.27;;;1.00;;
63110;SDS011;49201;53.426;10.300;2023-04-25T11:18:59;5.93;;;1.30;;
63110;SDS011;49201;53.426;10.300;2023-04-25T11:21:25;7.33;;;1.67;;
63110;SDS011;49201;53.426;10.300;2023-04-25T11:23:54;6.97;;;1.67;;
63110;SDS011;49201;53.426;10.300;2023-04-25T11:26:21;4.97;;;1.60;;
63110;SDS011;49201;53.426;10.300;2023-04-25T11:28:47;5.23;;;1.43;;
63110;SDS011;49201;53.426;10.300;2023-04-25T11:31:14;6.97;;;1.73;;
63110;SDS011;49201;53.426;10.300;2023-04-25T11:33:40;8.83;;;1.63;;
63110;SDS011;49201;53.426;10.300;2023-04-25T11:36:06;6.10;;;1.27;;
63110;SDS011;49201;53.426;10.300;2023-04-25T11:38:31;6.00;;;1.50;;
63110;SDS011;49201;53.426;10.300;2023-04-25T11:40:57;6.67;;;1.63;;
63110;SDS011;49201;53.426;10.300;2023-04-25T11:43:23;3.87;;;1.23;;
63110;SDS011;49201;53.426;10.300;2023-04-25T11:45:49;8.60;;;1.87;;
63110;SDS011;49201;53.426;10.300;2023-04-25T11:48:16;3.57;;;1.70;;
63110;SDS011;49201;53.426;10.300;2023-04-25T11:50:42;6.50;;;1.60;;
63110;SDS011;49201;53.426;10.300;2023-04-25T11:53:07;5.93;;;1.40;;
63110;SDS011;49201;53.426;10.300;2023-04-25T11:55:33;4.97;;;1.53;;
63110;SDS011;49201;53.426;10.300;2023-04-25T11:57:59;9.07;;;2.17;;
63110;SDS011;49201;53.426;10.300;2023-04-25T12:00:26;7.03;;;1.70;;
63110;SDS011;49201;53.426;10.300;2023-04-25T12:02:55;7.83;;;1.80;;
63110;SDS011;49201;53.426;10.300;2023-04-25T12:05:23;2.13;;;1.10;;
63110;SDS011;49201;53.426;10.300;2023-04-25T12:07:51;4.17;;;0.90;;
63110;SDS011;49201;53.426;10.300;2023-04-25T12:10:17;2.17;;;0.80;;
63110;SDS011;49201;53.426;10.300;2023-04-25T12:12:44;2.50;;;0.60;;
63110;SDS011;49201;53.426;10.300;2023-04-25T12:15:11;2.90;;;1.00;;
63110;SDS011;49201;53.426;10.300;2023-04-25T12:17:40;2.07;;;0.60;;
63110;SDS011;49201;53.426;10.300;2023-04-25T12:20:16;3.27;;;0.90;;
63110;SDS011;49201;53.426;10.300;2023-04-25T12:22:46;5.50;;;1.40;;
63110;SDS011;49201;53.426;10.300;2023-04-25T12:31:03;3.50;;;0.90;;
63110;SDS011;49201;53.426;10.300;2023-04-25T12:33:31;4.23;;;1.40;;
63110;SDS011;49201;53.426;10.300;2023-04-25T12:35:58;4.37;;;1.30;;
63110;SDS011;49201;53.426;10.300;2023-04-25T12:38:25;4.43;;;1.17;;
63110;SDS011;49201;53.426;10.300;2023-04-25T12:40:51;4.63;;;1.37;;
63110;SDS011;49201;53.426;10.300;2023-04-25T12:43:17;4.63;;;1.30;;
63110;SDS011;49201;53.426;10.300;2023-04-25T12:45:43;4.40;;;1.20;;
63110;SDS011;49201;53.426;10.300;2023-04-25T12:48:10;5.40;;;1.23;;
63110;SDS011;49201;53.426;10.300;2023-04-25T12:50:35;6.93;;;1.30;;
63110;SDS011;49201;53.426;10.300;2023-04-25T12:53:00;5.30;;;1.10;;
63110;SDS011;49201;53.426;10.300;2023-04-25T12:55:26;4.10;;;1.43;;
63110;SDS011;49201;53.426;10.300;2023-04-25T12:57:51;3.97;;;0.93;;
63110;SDS011;49201;53.426;10.300;2023-04-25T13:00:17;4.60;;;1.37;;
63110;SDS011;49201;53.426;10.300;2023-04-25T13:02:44;6.20;;;1.50;;
63110;SDS011;49201;53.426;10.300;2023-04-25T13:05:12;4.97;;;1.33;;
63110;SDS011;49201;53.426;10.300;2023-04-25T13:07:37;10.00;;;1.87;;
63110;SDS011;49201;53.426;10.300;2023-04-25T13:10:03;9.77;;;2.00;;
63110;SDS011;49201;53.426;10.300;2023-04-25T13:12:30;7.47;;;1.47;;
63110;SDS011;49201;53.426;10.300;2023-04-25T13:14:56;7.80;;;2.07;;
63110;SDS011;49201;53.426;10.300;2023-04-25T13:17:22;5.33;;;1.60;;
63110;SDS011;49201;53.426;10.300;2023-04-25T13:19:47;4.43;;;1.20;;
63110;SDS011;49201;53.426;10.300;2023-04-25T13:22:13;6.87;;;1.30;;
63110;SDS011;49201;53.426;10.300;2023-04-25T13:24:40;6.57;;;1.50;;
63110;SDS011;49201;53.426;10.300;2023-04-25T13:27:06;7.47;;;1.90;;
63110;SDS011;49201;53.426;10.300;2023-04-25T13:29:32;4.63;;;1.40;;
63110;SDS011;49201;53.426;10.300;2023-04-25T13:31:59;9.83;;;1.83;;
63110;SDS011;49201;53.426;10.300;2023-04-25T13:34:25;7.67;;;1.50;;
63110;SDS011;49201;53.426;10.300;2023-04-25T13:36:51;5.60;;;1.40;;
63110;SDS011;49201;53.426;10.300;2023-04-25T13:39:16;6.40;;;1.80;;
63110;SDS011;49201;53.426;10.300;2023-04-25T13:41:42;7.40;;;2.07;;
63110;SDS011;49201;53.426;10.300;2023-04-25T13:44:07;8.03;;;1.97;;
63110;SDS011;49201;53.426;10.300;2023-04-25T13:46:32;8.53;;;1.77;;
63110;SDS011;49201;53.426;10.300;2023-04-25T13:48:58;4.97;;;1.23;;
63110;SDS011;49201;53.426;10.300;2023-04-25T13:51:24;5.80;;;1.53;;
63110;SDS011;49201;53.426;10.300;2023-04-25T13:53:51;6.00;;;1.60;;
63110;SDS011;49201;53.426;10.300;2023-04-25T13:56:16;8.03;;;1.63;;
63110;SDS011;49201;53.426;10.300;2023-04-25T13:58:41;5.13;;;1.50;;
63110;SDS011;49201;53.426;10.300;2023-04-25T14:01:07;4.40;;;1.50;;
63110;SDS011;49201;53.426;10.300;2023-04-25T14:03:33;7.07;;;1.43;;
63110;SDS011;49201;53.426;10.300;2023-04-25T14:05:58;4.13;;;1.50;;
63110;SDS011;49201;53.426;10.300;2023-04-25T14:08:24;5.97;;;1.80;;
63110;SDS011;49201;53.426;10.300;2023-04-25T14:10:50;5.63;;;2.10;;
63110;SDS011;49201;53.426;10.300;2023-04-25T14:13:15;6.83;;;1.90;;
63110;SDS011;49201;53.426;10.300;2023-04-25T14:15:40;8.63;;;2.03;;
63110;SDS011;49201;53.426;10.300;2023-04-25T14:18:06;8.50;;;1.90;;
63110;SDS011;49201;53.426;10.300;2023-04-25T14:20:32;4.30;;;1.37;;
63110;SDS011;49201;53.426;10.300;2023-04-25T14:22:57;8.27;;;2.10;;
63110;SDS011;49201;53.426;10.300;2023-04-25T14:25:23;6.53;;;1.57;;
63110;SDS011;49201;53.426;10.300;2023-04-25T14:27:49;5.07;;;1.40;;
63110;SDS011;49201;53.426;10.300;2023-04-25T14:30:15;6.90;;;1.50;;
63110;SDS011;49201;53.426;10.300;2023-04-25T14:32:42;5.37;;;1.40;;
63110;SDS011;49201;53.426;10.300;2023-04-25T14:35:08;5.10;;;1.23;;
63110;SDS011;49201;53.426;10.300;2023-04-25T14:37:34;4.50;;;1.30;;
63110;SDS011;49201;53.426;10.300;2023-04-25T14:39:59;6.40;;;1.40;;
63110;SDS011;49201;53.426;10.300;2023-04-25T14:42:25;7.03;;;2.20;;
63110;SDS011;49201;53.426;10.300;2023-04-25T14:44:50;6.70;;;1.63;;
63110;SDS011;49201;53.426;10.300;2023-04-25T14:47:16;5.53;;;1.70;;
63110;SDS011;49201;53.426;10.300;2023-04-25T14:49:41;8.93;;;1.57;;
63110;SDS011;49201;53.426;10.300;2023-04-25T14:52:07;7.80;;;1.50;;